Time;durP1;ratioP1;P1;durP2;ratioP2;P2;SDS_P1;SDS_P2;PMS_P1;PMS_P2;Temp;Humidity;BMP_temperature;BMP_pressure;BME280_temperature;BME280_humidity;BME280_pressure;Samples;Min_cycle;Max_cycle;Signal;HPM_P1;HPM_P2
2023/08/01 00:00:18;;;;;;;7.90;5.90;;;;;;;;;;106768;1250;62110;-79
2023/08/01 00:03:05;;;;;;;11.60;6.30;;;;;;;;;;106895;1250;62086;-80
2023/08/01 00:05:31;;;;;;;10.00;5.70;;;;;;;;;;106795;1250;62051;-79
2023/08/01 00:07:58;;;;;;;11.50;5.60;;;;;;;;;;106788;1251;62441;-80
2023/08/01 00:10:24;;;;;;;10.70;5.80;;;;;;;;;;106783;1253;61996;-80
2023/08/01 00:12:50;;;;;;;9.20;4.90;;;;;;;;;;106842;1254;62162;-79
2023/08/01 00:15:17;;;;;;;8.30;6.20;;;;;;;;;;106792;1254;62044;-79
2023/08/01 00:17:43;;;;;;;14.40;6.20;;;;;;;;;;106834;1251;62215;-80
2023/08/01 00:20:10;;;;;;;8.80;5.20;;;;;;;;;;106788;1250;62243;-80
2023/08/01 00:22:36;;;;;;;9.50;5.30;;;;;;;;;;106791;1254;61929;-79
2023/08/01 00:25:03;;;;;;;11.00;5.30;;;;;;;;;;106757;1251;62101;-80
2023/08/01 00:27:29;;;;;;;9.70;5.90;;;;;;;;;;106774;1250;62067;-79
2023/08/01 00:29:55;;;;;;;10.00;5.70;;;;;;;;;;106751;1254;62177;-80
2023/08/01 00:32:22;;;;;;;9.50;5.60;;;;;;;;;;106828;1251;62188;-79
2023/08/01 00:34:49;;;;;;;10.00;5.30;;;;;;;;;;106810;1252;62362;-79
2023/08/01 00:37:16;;;;;;;9.50;5.40;;;;;;;;;;106807;1253;61914;-79
2023/08/01 00:39:42;;;;;;;9.70;5.80;;;;;;;;;;106806;1249;62153;-79
2023/08/01 00:42:09;;;;;;;10.30;5.80;;;;;;;;;;106862;1253;62144;-79
2023/08/01 00:44:35;;;;;;;9.60;5.90;;;;;;;;;;107003;1253;62097;-80
2023/08/01 00:47:01;;;;;;;7.50;5.20;;;;;;;;;;106939;1253;62074;-80
2023/08/01 00:49:28;;;;;;;11.20;5.10;;;;;;;;;;107498;1251;61872;-82
2023/08/01 00:51:54;;;;;;;8.90;5.70;;;;;;;;;;107379;1251;62140;-80
2023/08/01 00:54:20;;;;;;;8.40;5.30;;;;;;;;;;107488;1253;62143;-80
2023/08/01 00:56:47;;;;;;;9.20;5.80;;;;;;;;;;107480;1251;61642;-80
2023/08/01 00:59:13;;;;;;;12.50;5.20;;;;;;;;;;107367;1249;62059;-80
2023/08/01 01:01:39;;;;;;;13.40;5.60;;;;;;;;;;107441;1249;62095;-80
2023/08/01 01:04:06;;;;;;;7.40;4.70;;;;;;;;;;107518;1249;62062;-80
2023/08/01 01:06:46;;;;;;;9.10;5.60;;;;;;;;;;107523;1251;62065;-80
2023/08/01 01:09:19;;;;;;;7.40;5.10;;;;;;;;;;107606;1252;61903;-80
2023/08/01 01:11:45;;;;;;;10.00;5.30;;;;;;;;;;107440;1251;62040;-80
2023/08/01 01:14:11;;;;;;;9.70;5.50;;;;;;;;;;107471;1252;62021;-80
2023/08/01 01:16:38;;;;;;;8.20;5.40;;;;;;;;;;107457;1251;61910;-80
2023/08/01 01:19:06;;;;;;;10.00;5.30;;;;;;;;;;107497;1253;62084;-80
2023/08/01 01:24:37;;;;;;;8.10;5.10;;;;;;;;;;107393;1256;62363;-80
2023/08/01 01:27:04;;;;;;;10.70;5.00;;;;;;;;;;107352;1252;62699;-80
2023/08/01 01:29:31;;;;;;;9.00;4.90;;;;;;;;;;107264;1257;62148;-80
2023/08/01 01:31:58;;;;;;;8.90;4.40;;;;;;;;;;107381;1252;61041;-80
2023/08/01 01:34:24;;;;;;;8.40;4.80;;;;;;;;;;107231;1253;61921;-80
2023/08/01 01:36:51;;;;;;;9.80;5.20;;;;;;;;;;107270;1257;60075;-80
2023/08/01 01:39:17;;;;;;;10.00;4.70;;;;;;;;;;107356;1254;62066;-80
2023/08/01 01:41:44;;;;;;;10.60;5.10;;;;;;;;;;109707;1256;60023;-80
2023/08/01 01:44:10;;;;;;;7.30;4.70;;;;;;;;;;109750;1256;59813;-80
2023/08/01 01:46:37;;;;;;;8.60;4.60;;;;;;;;;;109727;1255;59826;-80
2023/08/01 01:49:03;;;;;;;11.50;5.30;;;;;;;;;;109592;1254;59931;-80
2023/08/01 01:51:30;;;;;;;8.40;4.90;;;;;;;;;;109705;1253;59964;-80
2023/08/01 01:53:56;;;;;;;7.30;4.90;;;;;;;;;;107381;1254;62097;-80
2023/08/01 01:56:22;;;;;;;8.40;4.30;;;;;;;;;;107333;1256;64245;-80
2023/08/01 01:58:49;;;;;;;8.10;5.10;;;;;;;;;;107352;1251;60893;-80
2023/08/01 02:01:15;;;;;;;9.50;5.60;;;;;;;;;;107407;1251;62037;-80
2023/08/01 02:03:41;;;;;;;7.30;4.80;;;;;;;;;;107318;1254;62063;-80
2023/08/01 02:06:08;;;;;;;7.30;4.40;;;;;;;;;;107418;1253;62057;-80
2023/08/01 02:08:34;;;;;;;9.60;5.50;;;;;;;;;;107396;1249;60372;-80
2023/08/01 02:11:00;;;;;;;5.90;4.40;;;;;;;;;;107394;1251;62069;-80
2023/08/01 02:13:27;;;;;;;13.10;5.10;;;;;;;;;;107366;1254;62035;-80
2023/08/01 02:15:54;;;;;;;6.00;4.70;;;;;;;;;;107540;1249;62047;-80
2023/08/01 02:18:20;;;;;;;8.90;4.80;;;;;;;;;;109893;1251;59696;-80
2023/08/01 02:20:46;;;;;;;10.60;4.70;;;;;;;;;;109886;1251;59677;-80
2023/08/01 02:23:13;;;;;;;7.90;4.70;;;;;;;;;;109892;1251;59658;-80
2023/08/01 02:25:40;;;;;;;9.00;4.90;;;;;;;;;;109775;1251;59630;-80
2023/08/01 02:28:06;;;;;;;10.70;5.10;;;;;;;;;;109622;1251;61229;-81
2023/08/01 02:30:33;;;;;;;8.30;4.80;;;;;;;;;;107314;1254;62219;-80
2023/08/01 02:32:59;;;;;;;10.60;4.80;;;;;;;;;;107308;1251;62022;-80
2023/08/01 02:35:28;;;;;;;7.50;5.20;;;;;;;;;;107420;1251;62126;-80
2023/08/01 02:37:54;;;;;;;8.80;5.20;;;;;;;;;;107325;1251;62151;-80
2023/08/01 02:40:21;;;;;;;7.50;5.30;;;;;;;;;;107323;1251;62143;-80
2023/08/01 02:42:47;;;;;;;7.70;4.70;;;;;;;;;;107407;1251;61872;-80
2023/08/01 02:45:13;;;;;;;6.70;4.10;;;;;;;;;;107456;1252;62032;-80
2023/08/01 02:47:40;;;;;;;9.40;4.70;;;;;;;;;;107396;1251;62016;-79
2023/08/01 02:50:06;;;;;;;7.10;4.70;;;;;;;;;;107461;1250;62493;-80
2023/08/01 02:52:33;;;;;;;9.60;5.30;;;;;;;;;;107443;1250;62226;-81
2023/08/01 02:54:59;;;;;;;6.60;4.00;;;;;;;;;;107374;1251;62070;-80
2023/08/01 02:57:26;;;;;;;7.40;4.70;;;;;;;;;;107424;1253;62083;-80
2023/08/01 02:59:53;;;;;;;8.50;4.10;;;;;;;;;;107353;1251;62111;-80
2023/08/01 03:02:20;;;;;;;7.40;4.50;;;;;;;;;;108206;1253;62025;-80
2023/08/01 03:04:47;;;;;;;6.20;4.40;;;;;;;;;;109869;1251;59653;-80
2023/08/01 03:07:13;;;;;;;11.50;5.40;;;;;;;;;;109865;1250;59808;-81
2023/08/01 03:09:39;;;;;;;7.10;4.20;;;;;;;;;;109900;1249;59678;-80
2023/08/01 03:12:06;;;;;;;11.10;5.00;;;;;;;;;;109878;1251;59763;-80
2023/08/01 03:14:32;;;;;;;8.60;4.30;;;;;;;;;;109890;1251;59642;-78
2023/08/01 03:16:58;;;;;;;7.10;4.80;;;;;;;;;;109840;1251;59718;-78
2023/08/01 03:19:25;;;;;;;8.30;4.50;;;;;;;;;;109885;1249;59999;-79
2023/08/01 03:21:51;;;;;;;6.80;4.30;;;;;;;;;;109347;1250;59979;-80
2023/08/01 03:24:17;;;;;;;6.30;3.60;;;;;;;;;;107326;1250;62060;-80
2023/08/01 03:26:44;;;;;;;9.90;4.70;;;;;;;;;;107409;1251;62436;-80
2023/08/01 03:29:10;;;;;;;6.50;3.90;;;;;;;;;;107327;1251;62040;-80
2023/08/01 03:31:36;;;;;;;5.80;4.10;;;;;;;;;;107407;1251;62083;-80
2023/08/01 03:34:03;;;;;;;7.00;3.90;;;;;;;;;;107379;1250;61992;-80
2023/08/01 03:36:29;;;;;;;7.00;4.20;;;;;;;;;;107387;1251;62156;-80
2023/08/01 03:38:55;;;;;;;7.80;5.20;;;;;;;;;;107445;1251;62590;-80
2023/08/01 03:41:22;;;;;;;9.50;4.10;;;;;;;;;;107407;1251;62608;-80
2023/08/01 03:43:48;;;;;;;6.40;4.20;;;;;;;;;;107439;1251;62255;-80
2023/08/01 03:46:15;;;;;;;8.00;5.10;;;;;;;;;;107676;1254;62417;-80
2023/08/01 03:48:42;;;;;;;6.90;4.50;;;;;;;;;;107578;1249;62056;-80
2023/08/01 03:51:09;;;;;;;10.50;5.50;;;;;;;;;;107456;1249;62050;-80
2023/08/01 03:53:36;;;;;;;10.90;5.30;;;;;;;;;;107480;1253;62484;-80
2023/08/01 03:56:02;;;;;;;7.90;4.60;;;;;;;;;;107467;1250;62057;-80
2023/08/01 03:58:29;;;;;;;8.90;4.30;;;;;;;;;;107432;1251;62204;-80
2023/08/01 04:00:56;;;;;;;6.40;4.00;;;;;;;;;;107292;1250;60115;-80
2023/08/01 04:03:22;;;;;;;7.00;4.20;;;;;;;;;;107335;1251;64136;-80
2023/08/01 04:05:48;;;;;;;6.00;4.10;;;;;;;;;;107292;1251;62066;-80
2023/08/01 04:08:15;;;;;;;9.20;4.10;;;;;;;;;;107325;1251;62070;-80
2023/08/01 04:10:41;;;;;;;7.20;4.70;;;;;;;;;;107306;1251;62067;-81
2023/08/01 04:13:07;;;;;;;6.00;3.80;;;;;;;;;;107311;1251;62541;-80
2023/08/01 04:15:34;;;;;;;7.50;4.50;;;;;;;;;;107340;1254;62760;-80
2023/08/01 04:18:00;;;;;;;6.30;3.90;;;;;;;;;;107738;1251;61955;-80
2023/08/01 04:20:27;;;;;;;7.60;4.90;;;;;;;;;;107396;1254;62025;-80
2023/08/01 04:22:53;;;;;;;5.90;4.30;;;;;;;;;;107693;1251;62020;-80
2023/08/01 04:25:19;;;;;;;7.20;4.50;;;;;;;;;;107880;1251;61940;-80
2023/08/01 04:27:46;;;;;;;6.70;4.40;;;;;;;;;;107326;1251;61962;-80
2023/08/01 04:30:12;;;;;;;6.60;4.20;;;;;;;;;;107646;1251;61959;-81
2023/08/01 04:32:38;;;;;;;11.00;4.50;;;;;;;;;;108158;1250;56348;-80
2023/08/01 04:35:05;;;;;;;8.70;4.40;;;;;;;;;;108212;1250;22523;-79
2023/08/01 04:37:31;;;;;;;10.80;4.70;;;;;;;;;;108195;1251;23072;-80
2023/08/01 04:39:58;;;;;;;7.10;4.50;;;;;;;;;;108181;1251;22540;-80
2023/08/01 04:42:24;;;;;;;5.40;3.80;;;;;;;;;;107666;1251;22529;-80
2023/08/01 04:44:51;;;;;;;7.30;5.20;;;;;;;;;;107658;1250;26195;-80
2023/08/01 04:47:18;;;;;;;5.70;3.60;;;;;;;;;;108202;1250;23205;-80
2023/08/01 04:49:44;;;;;;;6.60;4.00;;;;;;;;;;108363;1253;44415;-80
2023/08/01 04:52:11;;;;;;;5.70;4.40;;;;;;;;;;108388;1253;59351;-80
2023/08/01 04:54:37;;;;;;;7.90;4.60;;;;;;;;;;108155;1250;59365;-80
2023/08/01 04:57:04;;;;;;;7.70;3.90;;;;;;;;;;108311;1251;25364;-80
2023/08/01 04:59:31;;;;;;;5.40;4.00;;;;;;;;;;108357;1251;23819;-80
2023/08/01 05:01:57;;;;;;;5.90;4.30;;;;;;;;;;108273;1251;22554;-79
2023/08/01 05:04:24;;;;;;;7.20;4.20;;;;;;;;;;108264;1250;23272;-80
2023/08/01 05:06:50;;;;;;;8.40;4.10;;;;;;;;;;108416;1249;22538;-80
2023/08/01 05:09:16;;;;;;;8.30;4.80;;;;;;;;;;108252;1250;24382;-81
2023/08/01 05:11:43;;;;;;;7.70;4.00;;;;;;;;;;108290;1252;22658;-80
2023/08/01 05:14:09;;;;;;;10.30;3.90;;;;;;;;;;108252;1250;22519;-80
2023/08/01 05:16:35;;;;;;;11.90;4.00;;;;;;;;;;108189;1251;22534;-81
2023/08/01 05:19:02;;;;;;;7.50;4.20;;;;;;;;;;108222;1250;22864;-80
2023/08/01 05:21:28;;;;;;;12.00;4.20;;;;;;;;;;108282;1250;22536;-80
2023/08/01 05:23:55;;;;;;;5.60;3.50;;;;;;;;;;108238;1249;22621;-80
2023/08/01 05:26:21;;;;;;;6.70;4.20;;;;;;;;;;108210;1250;22865;-80
2023/08/01 05:28:47;;;;;;;8.00;3.50;;;;;;;;;;108022;1250;59356;-81
2023/08/01 05:31:14;;;;;;;8.10;3.20;;;;;;;;;;107631;1250;62422;-81
2023/08/01 05:33:40;;;;;;;5.30;3.50;;;;;;;;;;107717;1251;61878;-81
2023/08/01 05:36:06;;;;;;;10.60;3.90;;;;;;;;;;108276;1249;25220;-81
2023/08/01 05:38:33;;;;;;;10.60;5.10;;;;;;;;;;108190;1250;23880;-81
2023/08/01 05:40:59;;;;;;;6.00;3.50;;;;;;;;;;108229;1249;22540;-80
2023/08/01 05:43:26;;;;;;;9.90;3.60;;;;;;;;;;108209;1249;25245;-81
2023/08/01 05:45:52;;;;;;;6.20;3.20;;;;;;;;;;107770;1251;62020;-81
2023/08/01 05:48:18;;;;;;;5.70;3.50;;;;;;;;;;107848;1251;61877;-81
2023/08/01 05:50:45;;;;;;;4.90;2.60;;;;;;;;;;108228;1250;22531;-81
2023/08/01 05:53:11;;;;;;;6.60;2.90;;;;;;;;;;108236;1250;23962;-81
2023/08/01 05:55:37;;;;;;;6.20;2.50;;;;;;;;;;108181;1250;22547;-80
2023/08/01 05:58:04;;;;;;;6.80;3.60;;;;;;;;;;108284;1249;25377;-81
2023/08/01 06:00:30;;;;;;;9.30;4.00;;;;;;;;;;108237;1250;22776;-81
2023/08/01 06:02:56;;;;;;;7.90;3.10;;;;;;;;;;108165;1251;58193;-81
2023/08/01 06:05:23;;;;;;;6.10;3.20;;;;;;;;;;107456;1250;62141;-81
2023/08/01 06:07:49;;;;;;;10.00;4.70;;;;;;;;;;107383;1254;62157;-80
2023/08/01 06:10:16;;;;;;;5.70;2.90;;;;;;;;;;107347;1249;63156;-80
2023/08/01 06:12:42;;;;;;;4.60;2.90;;;;;;;;;;107700;1250;62054;-81
2023/08/01 06:15:09;;;;;;;6.60;3.60;;;;;;;;;;107606;1250;64248;-81
2023/08/01 06:17:35;;;;;;;7.30;3.70;;;;;;;;;;107484;1253;62153;-80
2023/08/01 06:20:04;;;;;;;9.30;3.40;;;;;;;;;;107755;1250;62032;-81
2023/08/01 06:22:30;;;;;;;;;;;;;;;;;;107438;1249;60576;-81
2023/08/01 06:24:57;;;;;;;10.60;3.50;;;;;;;;;;107445;1250;62149;-81
2023/08/01 06:27:23;;;;;;;4.60;3.00;;;;;;;;;;107377;1250;62078;-80
2023/08/01 06:29:50;;;;;;;5.20;3.30;;;;;;;;;;107445;1249;62246;-80
2023/08/01 06:32:16;;;;;;;6.50;3.50;;;;;;;;;;107473;1250;62117;-80
2023/08/01 06:34:42;;;;;;;7.10;3.90;;;;;;;;;;107391;1251;62491;-81
2023/08/01 06:37:10;;;;;;;12.40;4.50;;;;;;;;;;107578;1250;62142;-80
2023/08/01 06:39:36;;;;;;;6.60;4.70;;;;;;;;;;107886;1250;62086;-81
2023/08/01 06:42:03;;;;;;;5.90;3.90;;;;;;;;;;108107;1253;61990;-81
2023/08/01 06:44:29;;;;;;;8.80;3.80;;;;;;;;;;107690;1250;62413;-81
2023/08/01 06:46:55;;;;;;;4.80;3.60;;;;;;;;;;107738;1251;62048;-81
2023/08/01 06:49:22;;;;;;;9.20;4.50;;;;;;;;;;107660;1253;62163;-81
2023/08/01 06:51:48;;;;;;;9.00;5.10;;;;;;;;;;107699;1250;62008;-81
2023/08/01 06:54:15;;;;;;;5.40;3.70;;;;;;;;;;107414;1249;61970;-81
2023/08/01 06:56:47;;;;;;;5.90;3.90;;;;;;;;;;107468;1250;62080;-83
2023/08/01 06:59:14;;;;;;;6.90;4.30;;;;;;;;;;107403;1250;62041;-81
2023/08/01 07:01:43;;;;;;;6.20;4.70;;;;;;;;;;107405;1254;62034;-81
2023/08/01 07:04:13;;;;;;;9.90;4.00;;;;;;;;;;107790;1250;61944;-81
2023/08/01 07:06:39;;;;;;;11.80;4.50;;;;;;;;;;107374;1251;61930;-80
2023/08/01 07:09:06;;;;;;;6.00;4.00;;;;;;;;;;107284;1251;183609;-80
2023/08/01 07:11:32;;;;;;;9.50;4.50;;;;;;;;;;107375;1250;62033;-80
2023/08/01 07:13:59;;;;;;;7.40;4.30;;;;;;;;;;107385;1254;62148;-80
2023/08/01 07:16:25;;;;;;;5.60;3.60;;;;;;;;;;107402;1250;60393;-81
2023/08/01 07:18:52;;;;;;;7.10;3.30;;;;;;;;;;107357;1249;62133;-81
2023/08/01 07:21:19;;;;;;;5.80;3.70;;;;;;;;;;107390;1250;62148;-81
2023/08/01 07:23:45;;;;;;;7.90;4.10;;;;;;;;;;107353;1250;61897;-81
2023/08/01 07:26:11;;;;;;;8.20;4.10;;;;;;;;;;107434;1250;61920;-81
2023/08/01 07:28:38;;;;;;;5.60;4.90;;;;;;;;;;107364;1250;62063;-81
2023/08/01 07:31:05;;;;;;;6.00;4.70;;;;;;;;;;107366;1249;62162;-81
2023/08/01 07:33:31;;;;;;;12.70;6.00;;;;;;;;;;107335;1249;62157;-81
2023/08/01 07:35:58;;;;;;;7.30;4.90;;;;;;;;;;107344;1250;61932;-81
2023/08/01 07:38:24;;;;;;;10.10;4.60;;;;;;;;;;107354;1249;62086;-81
2023/08/01 07:40:50;;;;;;;7.40;4.60;;;;;;;;;;107331;1253;62028;-81
2023/08/01 07:43:17;;;;;;;5.50;3.80;;;;;;;;;;107385;1254;62344;-81
2023/08/01 07:45:43;;;;;;;9.00;3.80;;;;;;;;;;107441;1250;62056;-81
2023/08/01 07:48:10;;;;;;;5.90;3.50;;;;;;;;;;107371;1249;62147;-81
2023/08/01 07:50:36;;;;;;;5.30;3.30;;;;;;;;;;107436;1254;62123;-81
2023/08/01 07:53:02;;;;;;;10.80;4.30;;;;;;;;;;107412;1249;62035;-81
2023/08/01 07:55:29;;;;;;;6.00;4.10;;;;;;;;;;107395;1250;60043;-81
2023/08/01 07:57:55;;;;;;;11.10;3.70;;;;;;;;;;107550;1250;62205;-81
2023/08/01 08:00:21;;;;;;;6.20;3.60;;;;;;;;;;107729;1254;62165;-81
2023/08/01 08:02:48;;;;;;;13.60;4.50;;;;;;;;;;107636;1254;61943;-81
2023/08/01 08:05:14;;;;;;;14.50;4.40;;;;;;;;;;107487;1253;60534;-81
2023/08/01 08:07:41;;;;;;;6.50;4.90;;;;;;;;;;107354;1249;62137;-81
2023/08/01 08:10:07;;;;;;;5.20;3.70;;;;;;;;;;107374;1250;62127;-81
2023/08/01 08:12:34;;;;;;;10.00;4.50;;;;;;;;;;107469;1250;62078;-81
2023/08/01 08:15:00;;;;;;;4.90;4.00;;;;;;;;;;107345;1250;62041;-81
2023/08/01 08:17:27;;;;;;;6.80;4.00;;;;;;;;;;107422;1251;62117;-81
2023/08/01 08:19:53;;;;;;;9.10;5.50;;;;;;;;;;107437;1250;62172;-81
2023/08/01 08:22:19;;;;;;;8.20;4.20;;;;;;;;;;107371;1252;62045;-81
2023/08/01 08:24:46;;;;;;;6.80;3.80;;;;;;;;;;107388;1253;63216;-81
2023/08/01 08:27:12;;;;;;;8.80;4.40;;;;;;;;;;107316;1250;62121;-81
2023/08/01 08:29:39;;;;;;;10.10;4.40;;;;;;;;;;107397;1249;61816;-81
2023/08/01 08:32:06;;;;;;;6.60;3.60;;;;;;;;;;107529;1250;63073;-80
2023/08/01 08:34:32;;;;;;;6.20;3.70;;;;;;;;;;107495;1250;62380;-81
2023/08/01 08:36:58;;;;;;;5.00;3.90;;;;;;;;;;107412;1253;62169;-81
2023/08/01 08:39:25;;;;;;;8.70;4.00;;;;;;;;;;107400;1253;61186;-81
2023/08/01 08:41:52;;;;;;;4.60;3.50;;;;;;;;;;107390;1249;62066;-81
2023/08/01 08:44:21;;;;;;;7.30;3.00;;;;;;;;;;107473;1249;62175;-81
2023/08/01 08:46:51;;;;;;;4.60;3.70;;;;;;;;;;107425;1256;62140;-81
2023/08/01 08:49:20;;;;;;;14.80;3.70;;;;;;;;;;107441;1253;64049;-81
2023/08/01 08:51:46;;;;;;;8.80;3.70;;;;;;;;;;107361;1249;60612;-81
2023/08/01 08:54:13;;;;;;;12.50;5.10;;;;;;;;;;107406;1252;61940;-81
2023/08/01 08:56:40;;;;;;;7.90;4.90;;;;;;;;;;107456;1250;62024;-81
2023/08/01 08:59:07;;;;;;;6.20;3.70;;;;;;;;;;107344;1249;62044;-81
2023/08/01 09:01:34;;;;;;;8.40;4.30;;;;;;;;;;107393;1249;62009;-80
2023/08/01 09:04:00;;;;;;;5.80;3.30;;;;;;;;;;107409;1249;61140;-81
2023/08/01 09:06:46;;;;;;;7.30;3.60;;;;;;;;;;107479;1249;62109;-80
2023/08/01 09:09:13;;;;;;;10.60;5.90;;;;;;;;;;107339;1253;62159;-81
2023/08/01 09:11:48;;;;;;;6.50;4.10;;;;;;;;;;107422;1249;62030;-80
2023/08/01 09:14:15;;;;;;;5.10;3.80;;;;;;;;;;107611;1254;62078;-81
2023/08/01 09:16:42;;;;;;;6.10;4.80;;;;;;;;;;107740;1249;61981;-80
2023/08/01 09:19:08;;;;;;;7.20;3.90;;;;;;;;;;107675;1254;62064;-80
2023/08/01 09:21:35;;;;;;;13.10;5.10;;;;;;;;;;107739;1250;62025;-81
2023/08/01 09:24:28;;;;;;;12.90;4.70;;;;;;;;;;107435;1249;62015;-80
2023/08/01 09:27:01;;;;;;;7.10;3.20;;;;;;;;;;107478;1250;62169;-80
2023/08/01 09:29:27;;;;;;;6.00;3.40;;;;;;;;;;107565;1249;60266;-81
2023/08/01 09:31:54;;;;;;;7.00;3.90;;;;;;;;;;107437;1249;62026;-80
2023/08/01 09:34:22;;;;;;;6.70;4.10;;;;;;;;;;107417;1249;62067;-80
2023/08/01 09:36:48;;;;;;;6.90;4.50;;;;;;;;;;107367;1249;62027;-80
2023/08/01 09:39:18;;;;;;;6.10;4.50;;;;;;;;;;107440;1250;62023;-80
2023/08/01 09:41:45;;;;;;;7.40;4.50;;;;;;;;;;107552;1249;61914;-81
2023/08/01 09:44:12;;;;;;;6.40;4.40;;;;;;;;;;107681;1250;62526;-80
2023/08/01 09:46:38;;;;;;;10.70;5.40;;;;;;;;;;107908;1249;62175;-80
2023/08/01 09:49:11;;;;;;;9.20;5.20;;;;;;;;;;107616;1254;62116;-80
2023/08/01 09:51:48;;;;;;;6.80;5.00;;;;;;;;;;107283;1251;62073;-80
2023/08/01 09:54:15;;;;;;;8.90;5.50;;;;;;;;;;107167;1252;62060;-80
2023/08/01 09:56:44;;;;;;;5.80;4.30;;;;;;;;;;107135;1250;62480;-80
2023/08/01 09:59:11;;;;;;;6.70;4.00;;;;;;;;;;107054;1250;62027;-80
2023/08/01 10:01:38;;;;;;;6.20;3.80;;;;;;;;;;107075;1251;62034;-80
2023/08/01 10:04:04;;;;;;;7.10;3.90;;;;;;;;;;107150;1253;62629;-80
2023/08/01 10:06:32;;;;;;;13.30;7.10;;;;;;;;;;107009;1255;64046;-80
2023/08/01 10:08:58;;;;;;;8.20;5.70;;;;;;;;;;107047;1250;60690;-80
2023/08/01 10:11:25;;;;;;;8.50;6.30;;;;;;;;;;107166;1251;63194;-80
2023/08/01 10:13:51;;;;;;;8.40;4.20;;;;;;;;;;107074;1254;62035;-80
2023/08/01 10:16:18;;;;;;;8.10;5.20;;;;;;;;;;107071;1251;62065;-80
2023/08/01 10:18:44;;;;;;;28.20;10.40;;;;;;;;;;107146;1252;62038;-80
2023/08/01 10:21:14;;;;;;;18.60;10.90;;;;;;;;;;107124;1250;62140;-81
2023/08/01 10:23:40;;;;;;;9.40;6.90;;;;;;;;;;107061;1250;62119;-80
2023/08/01 10:26:07;;;;;;;13.60;7.80;;;;;;;;;;107195;1249;63332;-80
2023/08/01 10:28:37;;;;;;;12.30;6.60;;;;;;;;;;107113;1253;62195;-80
2023/08/01 10:31:13;;;;;;;13.20;7.50;;;;;;;;;;107118;1249;62027;-80
2023/08/01 10:33:40;;;;;;;14.20;7.80;;;;;;;;;;107160;1249;62154;-80
2023/08/01 10:36:13;;;;;;;12.10;6.90;;;;;;;;;;107075;1250;62021;-80
2023/08/01 10:38:46;;;;;;;5.20;3.50;;;;;;;;;;106957;1251;62139;-80
2023/08/01 10:41:19;;;;;;;3.90;3.30;;;;;;;;;;107008;1250;62041;-80
2023/08/01 10:43:46;;;;;;;7.80;3.50;;;;;;;;;;107241;1251;62021;-80
2023/08/01 10:46:12;;;;;;;4.00;2.70;;;;;;;;;;107125;1248;62168;-80
2023/08/01 10:48:51;;;;;;;7.10;3.20;;;;;;;;;;107096;1250;62033;-80
2023/08/01 10:51:18;;;;;;;7.80;4.00;;;;;;;;;;107090;1249;62050;-80
2023/08/01 10:53:44;;;;;;;9.60;5.90;;;;;;;;;;107170;1251;62041;-80
2023/08/01 10:56:20;;;;;;;5.60;3.70;;;;;;;;;;107131;1250;62059;-81
2023/08/01 10:58:46;;;;;;;8.80;4.00;;;;;;;;;;107150;1250;62046;-80
2023/08/01 11:01:13;;;;;;;7.10;3.80;;;;;;;;;;107347;1250;62076;-80
2023/08/01 11:03:41;;;;;;;6.00;3.30;;;;;;;;;;107435;1254;62002;-80
2023/08/01 11:06:08;;;;;;;6.30;4.80;;;;;;;;;;107447;1256;62124;-80
2023/08/01 11:08:35;;;;;;;5.50;3.20;;;;;;;;;;107635;1250;61928;-80
2023/08/01 11:11:01;;;;;;;5.50;4.10;;;;;;;;;;107292;1249;62041;-80
2023/08/01 11:13:27;;;;;;;6.00;3.40;;;;;;;;;;107138;1253;62516;-80
2023/08/01 11:15:56;;;;;;;4.90;3.10;;;;;;;;;;107043;1250;62095;-80
2023/08/01 11:18:22;;;;;;;4.30;3.40;;;;;;;;;;107143;1252;62114;-80
2023/08/01 11:20:48;;;;;;;7.10;3.60;;;;;;;;;;107235;1253;62086;-80
2023/08/01 11:23:15;;;;;;;6.40;3.40;;;;;;;;;;107368;1250;62486;-80
2023/08/01 11:25:48;;;;;;;5.10;3.30;;;;;;;;;;107457;1250;62025;-80
2023/08/01 11:28:15;;;;;;;4.90;3.20;;;;;;;;;;107223;1250;62117;-80
2023/08/01 11:30:42;;;;;;;4.70;3.10;;;;;;;;;;107329;1250;62063;-80
2023/08/01 11:33:24;;;;;;;5.40;3.50;;;;;;;;;;107546;1253;62021;-80
2023/08/01 11:35:52;;;;;;;5.90;3.80;;;;;;;;;;107393;1253;62041;-80
2023/08/01 11:38:18;;;;;;;5.00;3.90;;;;;;;;;;107341;1250;62651;-80
2023/08/01 11:40:45;;;;;;;5.50;3.00;;;;;;;;;;107345;1251;62031;-80
2023/08/01 11:43:11;;;;;;;5.30;3.50;;;;;;;;;;107431;1252;62022;-80
2023/08/01 11:45:37;;;;;;;3.30;2.80;;;;;;;;;;107186;1249;61979;-80
2023/08/01 11:48:04;;;;;;;4.20;3.20;;;;;;;;;;107093;1249;61971;-80
2023/08/01 11:50:30;;;;;;;6.70;3.30;;;;;;;;;;107112;1250;62152;-80
2023/08/01 11:52:56;;;;;;;6.50;3.60;;;;;;;;;;107092;1250;62168;-80
2023/08/01 11:55:25;;;;;;;4.40;2.60;;;;;;;;;;107151;1249;62027;-80
2023/08/01 11:58:01;;;;;;;4.40;2.70;;;;;;;;;;107096;1249;62060;-80
2023/08/01 12:00:28;;;;;;;3.70;2.70;;;;;;;;;;107050;1250;61131;-80
2023/08/01 12:03:13;;;;;;;3.30;2.30;;;;;;;;;;107240;1251;61988;-80
2023/08/01 12:05:41;;;;;;;5.20;2.90;;;;;;;;;;107478;1253;62146;-81
2023/08/01 12:08:13;;;;;;;5.10;2.30;;;;;;;;;;107410;1250;61948;-80
2023/08/01 12:10:40;;;;;;;3.60;2.40;;;;;;;;;;107515;1251;61957;-80
2023/08/01 12:13:06;;;;;;;3.80;2.80;;;;;;;;;;107372;1253;62146;-80
2023/08/01 12:15:32;;;;;;;5.40;2.70;;;;;;;;;;107337;1250;62030;-80
2023/08/01 12:17:59;;;;;;;4.30;2.60;;;;;;;;;;107469;1251;61920;-80
2023/08/01 12:20:25;;;;;;;4.00;2.60;;;;;;;;;;107049;1253;62123;-80
2023/08/01 12:22:52;;;;;;;4.80;2.80;;;;;;;;;;107122;1248;62024;-80
2023/08/01 12:25:18;;;;;;;4.80;3.00;;;;;;;;;;107319;1250;62116;-80
2023/08/01 12:27:45;;;;;;;6.10;3.80;;;;;;;;;;107262;1252;62466;-80
2023/08/01 12:30:11;;;;;;;4.00;2.50;;;;;;;;;;107188;1252;62459;-80
2023/08/01 12:32:38;;;;;;;5.50;4.30;;;;;;;;;;107191;1251;60333;-80
2023/08/01 12:35:04;;;;;;;5.60;3.20;;;;;;;;;;107224;1253;62052;-80
2023/08/01 12:37:30;;;;;;;5.50;3.50;;;;;;;;;;107165;1251;62145;-80
2023/08/01 12:39:57;;;;;;;5.30;3.10;;;;;;;;;;107554;1250;62699;-80
2023/08/01 12:42:23;;;;;;;5.50;2.80;;;;;;;;;;107504;1250;62136;-80
2023/08/01 12:44:50;;;;;;;4.30;2.90;;;;;;;;;;107485;1251;62128;-80
2023/08/01 12:47:16;;;;;;;6.90;3.70;;;;;;;;;;107472;1249;61935;-80
2023/08/01 12:49:42;;;;;;;5.40;3.50;;;;;;;;;;107507;1250;62060;-80
2023/08/01 12:52:09;;;;;;;4.80;3.00;;;;;;;;;;107716;1250;61898;-80
2023/08/01 12:54:35;;;;;;;4.40;2.80;;;;;;;;;;107530;1253;62030;-80
2023/08/01 12:57:01;;;;;;;4.00;2.60;;;;;;;;;;107532;1250;62106;-80
2023/08/01 12:59:28;;;;;;;6.60;2.70;;;;;;;;;;107465;1251;61999;-80
2023/08/01 13:01:54;;;;;;;5.90;3.10;;;;;;;;;;107558;1250;62034;-80
2023/08/01 13:04:21;;;;;;;5.00;3.40;;;;;;;;;;107516;1250;62151;-81
2023/08/01 13:06:47;;;;;;;4.50;2.90;;;;;;;;;;107368;1250;62196;-80
2023/08/01 13:09:14;;;;;;;5.50;3.30;;;;;;;;;;107387;1250;62075;-80
2023/08/01 13:11:43;;;;;;;7.10;4.00;;;;;;;;;;107459;1249;62072;-80
2023/08/01 13:14:09;;;;;;;4.10;2.60;;;;;;;;;;107509;1253;62128;-80
2023/08/01 13:16:36;;;;;;;8.30;5.10;;;;;;;;;;107556;1250;62027;-80
2023/08/01 13:19:02;;;;;;;8.60;6.70;;;;;;;;;;107438;1251;62174;-80
2023/08/01 13:21:28;;;;;;;7.40;4.50;;;;;;;;;;107468;1249;62105;-80
2023/08/01 13:23:55;;;;;;;5.70;3.30;;;;;;;;;;107452;1251;62057;-80
2023/08/01 13:26:21;;;;;;;10.90;5.40;;;;;;;;;;107568;1249;62976;-80
2023/08/01 13:28:48;;;;;;;7.20;4.70;;;;;;;;;;107422;1249;63124;-80
2023/08/01 13:31:14;;;;;;;10.60;5.70;;;;;;;;;;107438;1253;62139;-80
2023/08/01 13:33:40;;;;;;;12.70;7.30;;;;;;;;;;107576;1250;62059;-80
2023/08/01 13:36:07;;;;;;;8.90;6.50;;;;;;;;;;107441;1253;62232;-80
2023/08/01 13:38:33;;;;;;;7.60;5.70;;;;;;;;;;107419;1253;62169;-80
2023/08/01 13:41:00;;;;;;;8.60;5.50;;;;;;;;;;107461;1250;62158;-80
2023/08/01 13:43:27;;;;;;;6.00;4.50;;;;;;;;;;107415;1251;62155;-80
2023/08/01 13:45:53;;;;;;;7.70;5.10;;;;;;;;;;107435;1251;62475;-80
2023/08/01 13:48:20;;;;;;;6.30;4.10;;;;;;;;;;107512;1249;61755;-80
2023/08/01 13:50:47;;;;;;;4.10;3.00;;;;;;;;;;107535;1253;60079;-80
2023/08/01 13:53:14;;;;;;;4.20;2.50;;;;;;;;;;107419;1250;62171;-80
2023/08/01 13:55:40;;;;;;;4.40;2.80;;;;;;;;;;107420;1250;62037;-80
2023/08/01 13:58:06;;;;;;;5.30;2.90;;;;;;;;;;107446;1250;61959;-80
2023/08/01 14:00:33;;;;;;;4.20;2.90;;;;;;;;;;107443;1250;62058;-80
2023/08/01 14:02:59;;;;;;;4.10;3.00;;;;;;;;;;107435;1253;62117;-80
2023/08/01 14:05:26;;;;;;;4.70;3.20;;;;;;;;;;107422;1251;62225;-80
2023/08/01 14:07:53;;;;;;;4.50;2.90;;;;;;;;;;107458;1253;60977;-80
2023/08/01 14:10:19;;;;;;;4.20;2.90;;;;;;;;;;107454;1250;63079;-80
2023/08/01 14:12:45;;;;;;;7.60;3.40;;;;;;;;;;107533;1253;62483;-80
2023/08/01 14:15:12;;;;;;;5.00;3.00;;;;;;;;;;107512;1250;62018;-80
2023/08/01 14:17:38;;;;;;;6.70;3.90;;;;;;;;;;107718;1253;62086;-80
2023/08/01 14:20:05;;;;;;;6.20;4.30;;;;;;;;;;107791;1251;62130;-80
2023/08/01 14:22:31;;;;;;;6.60;4.20;;;;;;;;;;107701;1251;62053;-80
2023/08/01 14:24:58;;;;;;;4.80;3.30;;;;;;;;;;107596;1250;61053;-80
2023/08/01 14:27:24;;;;;;;5.20;3.10;;;;;;;;;;107574;1253;62057;-80
2023/08/01 14:29:51;;;;;;;6.90;3.90;;;;;;;;;;107500;1249;62116;-80